sensor_id;sensor_type;location;lat;lon;timestamp;P1;durP1;ratioP1;P2;durP2;ratioP2
36663;SDS011;53333;51.976;20.144;2022-10-16T00:04:15;20.15;;;11.68;;
36663;SDS011;53333;51.976;20.144;2022-10-16T00:06:48;23.42;;;11.25;;
36663;SDS011;53333;51.976;20.144;2022-10-16T00:11:55;19.63;;;11.63;;
36663;SDS011;53333;51.976;20.144;2022-10-16T00:17:03;26.55;;;13.73;;
36663;SDS011;53333;51.976;20.144;2022-10-16T00:19:37;20.90;;;13.45;;
36663;SDS011;53333;51.976;20.144;2022-10-16T00:22:11;24.33;;;14.32;;
36663;SDS011;53333;51.976;20.144;2022-10-16T00:27:18;27.73;;;16.33;;
36663;SDS011;53333;51.976;20.144;2022-10-16T00:32:27;23.15;;;12.57;;
36663;SDS011;53333;51.976;20.144;2022-10-16T00:35:00;21.15;;;13.90;;
36663;SDS011;53333;51.976;20.144;2022-10-16T00:37:38;22.75;;;13.60;;
36663;SDS011;53333;51.976;20.144;2022-10-16T00:40:11;22.25;;;13.00;;
36663;SDS011;53333;51.976;20.144;2022-10-16T00:42:45;19.10;;;12.43;;
36663;SDS011;53333;51.976;20.144;2022-10-16T00:45:19;20.95;;;12.25;;
36663;SDS011;53333;51.976;20.144;2022-10-16T00:50:30;17.15;;;11.50;;
36663;SDS011;53333;51.976;20.144;2022-10-16T00:53:05;20.42;;;13.50;;
36663;SDS011;53333;51.976;20.144;2022-10-16T00:58:13;21.15;;;13.73;;
36663;SDS011;53333;51.976;20.144;2022-10-16T01:03:26;20.60;;;13.67;;
36663;SDS011;53333;51.976;20.144;2022-10-16T01:06:09;17.00;;;12.25;;
36663;SDS011;53333;51.976;20.144;2022-10-16T01:11:55;22.05;;;15.15;;
36663;SDS011;53333;51.976;20.144;2022-10-16T01:14:36;27.70;;;15.18;;
36663;SDS011;53333;51.976;20.144;2022-10-16T01:17:17;23.05;;;14.30;;
36663;SDS011;53333;51.976;20.144;2022-10-16T01:20:08;26.27;;;16.85;;
36663;SDS011;53333;51.976;20.144;2022-10-16T01:22:50;36.03;;;19.80;;
36663;SDS011;53333;51.976;20.144;2022-10-16T01:25:50;52.45;;;26.75;;
36663;SDS011;53333;51.976;20.144;2022-10-16T01:28:34;35.35;;;19.45;;
36663;SDS011;53333;51.976;20.144;2022-10-16T01:31:12;26.20;;;16.73;;
36663;SDS011;53333;51.976;20.144;2022-10-16T01:33:53;25.50;;;15.20;;
36663;SDS011;53333;51.976;20.144;2022-10-16T01:36:35;23.23;;;14.20;;
36663;SDS011;53333;51.976;20.144;2022-10-16T01:39:12;23.02;;;14.95;;
36663;SDS011;53333;51.976;20.144;2022-10-16T01:41:48;21.55;;;13.85;;
36663;SDS011;53333;51.976;20.144;2022-10-16T01:44:28;18.95;;;14.23;;
36663;SDS011;53333;51.976;20.144;2022-10-16T01:47:04;20.48;;;13.73;;
36663;SDS011;53333;51.976;20.144;2022-10-16T01:49:38;20.60;;;13.43;;
36663;SDS011;53333;51.976;20.144;2022-10-16T01:52:15;18.10;;;12.80;;
36663;SDS011;53333;51.976;20.144;2022-10-16T01:54:52;21.58;;;13.63;;
36663;SDS011;53333;51.976;20.144;2022-10-16T01:57:29;21.83;;;13.63;;
36663;SDS011;53333;51.976;20.144;2022-10-16T02:00:07;25.65;;;14.02;;
36663;SDS011;53333;51.976;20.144;2022-10-16T02:02:44;19.23;;;13.93;;
36663;SDS011;53333;51.976;20.144;2022-10-16T02:05:23;21.02;;;13.27;;
36663;SDS011;53333;51.976;20.144;2022-10-16T02:08:01;20.33;;;13.70;;
36663;SDS011;53333;51.976;20.144;2022-10-16T02:10:36;20.63;;;13.90;;
36663;SDS011;53333;51.976;20.144;2022-10-16T02:13:13;24.88;;;14.35;;
36663;SDS011;53333;51.976;20.144;2022-10-16T02:15:52;24.33;;;14.35;;
36663;SDS011;53333;51.976;20.144;2022-10-16T02:18:25;23.00;;;14.20;;
36663;SDS011;53333;51.976;20.144;2022-10-16T02:21:04;22.45;;;14.70;;
36663;SDS011;53333;51.976;20.144;2022-10-16T02:23:45;24.10;;;14.32;;
36663;SDS011;53333;51.976;20.144;2022-10-16T02:26:28;23.13;;;14.23;;
36663;SDS011;53333;51.976;20.144;2022-10-16T02:29:07;21.25;;;14.70;;
36663;SDS011;53333;51.976;20.144;2022-10-16T02:31:47;20.35;;;13.90;;
36663;SDS011;53333;51.976;20.144;2022-10-16T02:34:24;22.83;;;14.38;;
36663;SDS011;53333;51.976;20.144;2022-10-16T02:37:02;23.98;;;15.35;;
36663;SDS011;53333;51.976;20.144;2022-10-16T02:39:38;23.52;;;14.43;;
36663;SDS011;53333;51.976;20.144;2022-10-16T02:42:13;25.70;;;14.57;;
36663;SDS011;53333;51.976;20.144;2022-10-16T02:44:47;25.27;;;14.68;;
36663;SDS011;53333;51.976;20.144;2022-10-16T02:47:25;26.80;;;16.02;;
36663;SDS011;53333;51.976;20.144;2022-10-16T02:49:59;22.15;;;15.15;;
36663;SDS011;53333;51.976;20.144;2022-10-16T02:52:32;22.60;;;14.82;;
36663;SDS011;53333;51.976;20.144;2022-10-16T02:55:07;25.00;;;15.45;;
36663;SDS011;53333;51.976;20.144;2022-10-16T02:57:41;21.45;;;14.30;;
36663;SDS011;53333;51.976;20.144;2022-10-16T03:02:50;20.88;;;13.88;;
36663;SDS011;53333;51.976;20.144;2022-10-16T03:05:24;24.25;;;14.13;;
36663;SDS011;53333;51.976;20.144;2022-10-16T03:10:32;25.40;;;14.20;;
36663;SDS011;53333;51.976;20.144;2022-10-16T03:15:39;19.73;;;13.95;;
36663;SDS011;53333;51.976;20.144;2022-10-16T03:20:47;22.80;;;14.50;;
36663;SDS011;53333;51.976;20.144;2022-10-16T03:25:55;23.73;;;14.57;;
36663;SDS011;53333;51.976;20.144;2022-10-16T03:28:28;22.17;;;14.63;;
36663;SDS011;53333;51.976;20.144;2022-10-16T03:33:36;24.75;;;14.20;;
36663;SDS011;53333;51.976;20.144;2022-10-16T03:36:10;22.73;;;14.85;;
36663;SDS011;53333;51.976;20.144;2022-10-16T03:38:44;23.10;;;13.90;;
36663;SDS011;53333;51.976;20.144;2022-10-16T03:43:51;22.23;;;15.30;;
36663;SDS011;53333;51.976;20.144;2022-10-16T03:46:25;25.65;;;14.95;;
36663;SDS011;53333;51.976;20.144;2022-10-16T03:51:38;28.90;;;15.85;;
36663;SDS011;53333;51.976;20.144;2022-10-16T03:54:11;29.58;;;16.25;;
36663;SDS011;53333;51.976;20.144;2022-10-16T03:56:45;26.63;;;16.17;;
36663;SDS011;53333;51.976;20.144;2022-10-16T03:59:19;25.70;;;16.95;;
36663;SDS011;53333;51.976;20.144;2022-10-16T04:04:27;23.95;;;16.33;;
36663;SDS011;53333;51.976;20.144;2022-10-16T04:07:01;26.55;;;16.20;;
36663;SDS011;53333;51.976;20.144;2022-10-16T04:12:08;26.58;;;15.48;;
36663;SDS011;53333;51.976;20.144;2022-10-16T04:14:41;25.58;;;16.27;;
36663;SDS011;53333;51.976;20.144;2022-10-16T04:17:15;29.70;;;17.55;;
36663;SDS011;53333;51.976;20.144;2022-10-16T04:22:23;25.10;;;16.33;;
36663;SDS011;53333;51.976;20.144;2022-10-16T04:24:58;23.73;;;16.92;;
36663;SDS011;53333;51.976;20.144;2022-10-16T04:30:06;27.98;;;16.38;;
36663;SDS011;53333;51.976;20.144;2022-10-16T04:32:40;25.98;;;17.15;;
36663;SDS011;53333;51.976;20.144;2022-10-16T04:35:15;25.33;;;16.08;;
36663;SDS011;53333;51.976;20.144;2022-10-16T04:37:49;27.92;;;16.52;;
36663;SDS011;53333;51.976;20.144;2022-10-16T04:42:56;21.13;;;14.48;;
36663;SDS011;53333;51.976;20.144;2022-10-16T04:45:32;24.55;;;16.50;;
36663;SDS011;53333;51.976;20.144;2022-10-16T04:48:08;24.90;;;16.40;;
36663;SDS011;53333;51.976;20.144;2022-10-16T04:50:43;24.02;;;16.40;;
36663;SDS011;53333;51.976;20.144;2022-10-16T04:53:24;24.70;;;16.48;;
36663;SDS011;53333;51.976;20.144;2022-10-16T04:58:31;22.52;;;14.90;;
36663;SDS011;53333;51.976;20.144;2022-10-16T05:03:38;25.13;;;15.95;;
36663;SDS011;53333;51.976;20.144;2022-10-16T05:08:47;25.63;;;14.93;;
36663;SDS011;53333;51.976;20.144;2022-10-16T05:11:23;24.55;;;15.60;;
36663;SDS011;53333;51.976;20.144;2022-10-16T05:16:30;24.50;;;15.80;;
36663;SDS011;53333;51.976;20.144;2022-10-16T05:19:04;27.80;;;16.48;;
36663;SDS011;53333;51.976;20.144;2022-10-16T05:21:59;25.38;;;15.40;;
36663;SDS011;53333;51.976;20.144;2022-10-16T05:24:33;25.38;;;16.92;;
36663;SDS011;53333;51.976;20.144;2022-10-16T05:29:40;25.00;;;15.68;;
36663;SDS011;53333;51.976;20.144;2022-10-16T05:32:14;25.05;;;15.63;;
36663;SDS011;53333;51.976;20.144;2022-10-16T05:34:48;27.08;;;15.52;;
36663;SDS011;53333;51.976;20.144;2022-10-16T05:37:24;21.88;;;15.85;;
36663;SDS011;53333;51.976;20.144;2022-10-16T05:39:59;25.73;;;17.25;;
36663;SDS011;53333;51.976;20.144;2022-10-16T05:42:33;25.25;;;16.55;;
36663;SDS011;53333;51.976;20.144;2022-10-16T05:45:07;26.20;;;17.08;;
36663;SDS011;53333;51.976;20.144;2022-10-16T05:47:42;22.30;;;16.02;;
36663;SDS011;53333;51.976;20.144;2022-10-16T05:52:51;22.50;;;15.40;;
36663;SDS011;53333;51.976;20.144;2022-10-16T05:55:25;29.98;;;16.50;;
36663;SDS011;53333;51.976;20.144;2022-10-16T05:57:58;27.23;;;16.33;;
36663;SDS011;53333;51.976;20.144;2022-10-16T06:03:05;26.07;;;15.27;;
36663;SDS011;53333;51.976;20.144;2022-10-16T06:05:39;21.75;;;15.80;;
36663;SDS011;53333;51.976;20.144;2022-10-16T06:08:16;23.38;;;15.50;;
36663;SDS011;53333;51.976;20.144;2022-10-16T06:10:59;25.33;;;16.17;;
36663;SDS011;53333;51.976;20.144;2022-10-16T06:16:08;19.17;;;14.45;;
36663;SDS011;53333;51.976;20.144;2022-10-16T06:18:43;23.85;;;16.33;;
36663;SDS011;53333;51.976;20.144;2022-10-16T06:23:53;28.40;;;17.70;;
36663;SDS011;53333;51.976;20.144;2022-10-16T06:26:28;57.78;;;35.40;;
36663;SDS011;53333;51.976;20.144;2022-10-16T06:29:05;23.67;;;16.05;;
36663;SDS011;53333;51.976;20.144;2022-10-16T06:31:38;26.88;;;17.10;;
36663;SDS011;53333;51.976;20.144;2022-10-16T06:34:12;24.70;;;16.00;;
36663;SDS011;53333;51.976;20.144;2022-10-16T06:36:46;25.92;;;15.52;;
36663;SDS011;53333;51.976;20.144;2022-10-16T06:41:54;23.63;;;15.13;;
36663;SDS011;53333;51.976;20.144;2022-10-16T06:44:36;22.17;;;15.68;;
36663;SDS011;53333;51.976;20.144;2022-10-16T06:47:10;22.15;;;15.23;;
36663;SDS011;53333;51.976;20.144;2022-10-16T06:49:44;22.27;;;14.82;;
36663;SDS011;53333;51.976;20.144;2022-10-16T06:52:24;23.20;;;15.05;;
36663;SDS011;53333;51.976;20.144;2022-10-16T06:55:02;25.15;;;14.95;;
36663;SDS011;53333;51.976;20.144;2022-10-16T06:57:36;20.50;;;14.60;;
36663;SDS011;53333;51.976;20.144;2022-10-16T07:02:43;19.77;;;13.32;;
36663;SDS011;53333;51.976;20.144;2022-10-16T07:05:20;19.13;;;13.45;;
36663;SDS011;53333;51.976;20.144;2022-10-16T07:10:28;23.23;;;13.45;;
36663;SDS011;53333;51.976;20.144;2022-10-16T07:13:02;24.58;;;15.20;;
36663;SDS011;53333;51.976;20.144;2022-10-16T07:15:40;17.30;;;12.50;;
36663;SDS011;53333;51.976;20.144;2022-10-16T07:18:13;19.65;;;13.65;;
36663;SDS011;53333;51.976;20.144;2022-10-16T07:20:48;21.83;;;13.85;;
36663;SDS011;53333;51.976;20.144;2022-10-16T07:25:56;18.13;;;13.00;;
36663;SDS011;53333;51.976;20.144;2022-10-16T07:28:31;20.38;;;13.07;;
36663;SDS011;53333;51.976;20.144;2022-10-16T07:31:06;19.85;;;13.48;;
36663;SDS011;53333;51.976;20.144;2022-10-16T07:33:42;22.05;;;13.43;;
36663;SDS011;53333;51.976;20.144;2022-10-16T07:36:18;18.38;;;13.52;;
36663;SDS011;53333;51.976;20.144;2022-10-16T07:38:52;20.50;;;15.00;;
36663;SDS011;53333;51.976;20.144;2022-10-16T07:41:32;32.22;;;20.95;;
36663;SDS011;53333;51.976;20.144;2022-10-16T07:44:08;23.48;;;15.55;;
36663;SDS011;53333;51.976;20.144;2022-10-16T07:46:42;19.55;;;13.45;;
36663;SDS011;53333;51.976;20.144;2022-10-16T07:51:48;21.85;;;12.05;;
36663;SDS011;53333;51.976;20.144;2022-10-16T07:54:25;16.88;;;11.93;;
36663;SDS011;53333;51.976;20.144;2022-10-16T07:57:00;16.45;;;11.73;;
36663;SDS011;53333;51.976;20.144;2022-10-16T07:59:33;17.60;;;11.98;;
36663;SDS011;53333;51.976;20.144;2022-10-16T08:02:07;15.70;;;12.23;;
36663;SDS011;53333;51.976;20.144;2022-10-16T08:04:41;15.82;;;12.27;;
36663;SDS011;53333;51.976;20.144;2022-10-16T08:07:14;16.30;;;11.70;;
36663;SDS011;53333;51.976;20.144;2022-10-16T08:09:48;13.38;;;10.98;;
36663;SDS011;53333;51.976;20.144;2022-10-16T08:12:24;13.90;;;10.68;;
36663;SDS011;53333;51.976;20.144;2022-10-16T08:14:58;14.75;;;11.48;;
36663;SDS011;53333;51.976;20.144;2022-10-16T08:17:32;14.88;;;10.93;;
36663;SDS011;53333;51.976;20.144;2022-10-16T08:20:08;17.55;;;12.63;;
36663;SDS011;53333;51.976;20.144;2022-10-16T08:22:47;16.08;;;12.15;;
36663;SDS011;53333;51.976;20.144;2022-10-16T08:25:21;17.48;;;10.88;;
36663;SDS011;53333;51.976;20.144;2022-10-16T08:27:56;18.08;;;12.82;;
36663;SDS011;53333;51.976;20.144;2022-10-16T08:30:30;18.42;;;11.65;;
36663;SDS011;53333;51.976;20.144;2022-10-16T08:33:04;17.00;;;12.32;;
36663;SDS011;53333;51.976;20.144;2022-10-16T08:35:39;16.27;;;11.45;;
36663;SDS011;53333;51.976;20.144;2022-10-16T08:38:22;19.33;;;12.75;;
36663;SDS011;53333;51.976;20.144;2022-10-16T08:40:57;22.17;;;14.38;;
36663;SDS011;53333;51.976;20.144;2022-10-16T08:43:50;15.73;;;11.55;;
36663;SDS011;53333;51.976;20.144;2022-10-16T08:46:40;16.33;;;12.45;;
36663;SDS011;53333;51.976;20.144;2022-10-16T08:51:56;19.23;;;12.95;;
36663;SDS011;53333;51.976;20.144;2022-10-16T08:54:31;15.05;;;12.27;;
36663;SDS011;53333;51.976;20.144;2022-10-16T08:57:13;18.67;;;11.77;;
36663;SDS011;53333;51.976;20.144;2022-10-16T08:59:57;16.58;;;11.95;;
36663;SDS011;53333;51.976;20.144;2022-10-16T09:02:33;16.73;;;12.93;;
36663;SDS011;53333;51.976;20.144;2022-10-16T09:05:22;18.55;;;12.80;;
36663;SDS011;53333;51.976;20.144;2022-10-16T09:08:05;16.45;;;11.65;;
36663;SDS011;53333;51.976;20.144;2022-10-16T09:10:50;19.35;;;11.57;;
36663;SDS011;53333;51.976;20.144;2022-10-16T09:13:29;18.20;;;12.98;;
36663;SDS011;53333;51.976;20.144;2022-10-16T09:16:13;19.58;;;12.98;;
36663;SDS011;53333;51.976;20.144;2022-10-16T09:18:54;17.45;;;12.43;;
36663;SDS011;53333;51.976;20.144;2022-10-16T09:21:35;18.42;;;12.80;;
36663;SDS011;53333;51.976;20.144;2022-10-16T09:24:11;19.65;;;12.35;;
36663;SDS011;53333;51.976;20.144;2022-10-16T09:26:48;16.98;;;11.98;;
36663;SDS011;53333;51.976;20.144;2022-10-16T09:29:24;17.85;;;12.63;;
36663;SDS011;53333;51.976;20.144;2022-10-16T09:32:06;20.27;;;12.57;;
36663;SDS011;53333;51.976;20.144;2022-10-16T09:34:43;17.65;;;11.95;;
36663;SDS011;53333;51.976;20.144;2022-10-16T09:37:21;16.77;;;11.50;;
36663;SDS011;53333;51.976;20.144;2022-10-16T09:39:57;16.42;;;10.93;;
36663;SDS011;53333;51.976;20.144;2022-10-16T09:42:38;20.20;;;11.07;;
36663;SDS011;53333;51.976;20.144;2022-10-16T09:45:19;14.95;;;10.48;;
36663;SDS011;53333;51.976;20.144;2022-10-16T09:47:57;15.98;;;11.27;;
36663;SDS011;53333;51.976;20.144;2022-10-16T09:50:32;14.27;;;11.10;;
36663;SDS011;53333;51.976;20.144;2022-10-16T09:53:08;15.00;;;10.48;;
36663;SDS011;53333;51.976;20.144;2022-10-16T09:55:48;15.30;;;11.27;;
36663;SDS011;53333;51.976;20.144;2022-10-16T09:58:22;15.98;;;10.45;;
36663;SDS011;53333;51.976;20.144;2022-10-16T10:00:57;16.52;;;11.82;;
36663;SDS011;53333;51.976;20.144;2022-10-16T10:03:34;12.45;;;10.05;;
36663;SDS011;53333;51.976;20.144;2022-10-16T10:06:17;15.07;;;10.73;;
36663;SDS011;53333;51.976;20.144;2022-10-16T10:08:58;12.65;;;9.70;;
36663;SDS011;53333;51.976;20.144;2022-10-16T10:11:42;14.80;;;10.73;;
36663;SDS011;53333;51.976;20.144;2022-10-16T10:14:20;14.95;;;9.93;;
36663;SDS011;53333;51.976;20.144;2022-10-16T10:17:08;17.98;;;10.90;;
36663;SDS011;53333;51.976;20.144;2022-10-16T10:19:49;14.25;;;11.50;;
36663;SDS011;53333;51.976;20.144;2022-10-16T10:22:27;14.57;;;9.85;;
36663;SDS011;53333;51.976;20.144;2022-10-16T10:25:12;14.48;;;10.02;;
36663;SDS011;53333;51.976;20.144;2022-10-16T10:27:56;15.25;;;10.07;;
36663;SDS011;53333;51.976;20.144;2022-10-16T10:30:39;11.52;;;9.65;;
36663;SDS011;53333;51.976;20.144;2022-10-16T10:33:24;13.05;;;9.48;;
36663;SDS011;53333;51.976;20.144;2022-10-16T10:36:08;18.13;;;10.52;;
36663;SDS011;53333;51.976;20.144;2022-10-16T10:38:50;12.77;;;10.05;;
36663;SDS011;53333;51.976;20.144;2022-10-16T10:44:38;12.98;;;9.93;;
36663;SDS011;53333;51.976;20.144;2022-10-16T10:47:31;11.70;;;9.57;;
36663;SDS011;53333;51.976;20.144;2022-10-16T10:50:16;13.13;;;9.57;;
36663;SDS011;53333;51.976;20.144;2022-10-16T10:53:02;14.85;;;9.98;;
36663;SDS011;53333;51.976;20.144;2022-10-16T10:55:45;16.80;;;10.50;;
36663;SDS011;53333;51.976;20.144;2022-10-16T11:01:31;13.73;;;9.52;;
36663;SDS011;53333;51.976;20.144;2022-10-16T11:07:24;15.95;;;11.40;;
36663;SDS011;53333;51.976;20.144;2022-10-16T11:10:03;11.68;;;9.63;;
36663;SDS011;53333;51.976;20.144;2022-10-16T11:12:46;15.05;;;10.13;;
36663;SDS011;53333;51.976;20.144;2022-10-16T11:15:27;14.32;;;10.45;;
36663;SDS011;53333;51.976;20.144;2022-10-16T11:18:06;18.00;;;9.95;;
36663;SDS011;53333;51.976;20.144;2022-10-16T11:20:45;13.65;;;9.07;;
36663;SDS011;53333;51.976;20.144;2022-10-16T11:23:23;24.70;;;19.02;;
36663;SDS011;53333;51.976;20.144;2022-10-16T11:26:04;13.27;;;10.88;;
36663;SDS011;53333;51.976;20.144;2022-10-16T11:28:45;14.48;;;9.25;;
36663;SDS011;53333;51.976;20.144;2022-10-16T11:31:24;11.68;;;8.50;;
36663;SDS011;53333;51.976;20.144;2022-10-16T11:34:05;11.60;;;9.13;;
36663;SDS011;53333;51.976;20.144;2022-10-16T11:36:49;9.90;;;8.05;;
36663;SDS011;53333;51.976;20.144;2022-10-16T11:39:26;8.82;;;7.05;;
36663;SDS011;53333;51.976;20.144;2022-10-16T11:42:04;9.18;;;7.22;;
36663;SDS011;53333;51.976;20.144;2022-10-16T11:44:50;9.32;;;7.85;;
36663;SDS011;53333;51.976;20.144;2022-10-16T11:47:31;11.43;;;8.40;;
36663;SDS011;53333;51.976;20.144;2022-10-16T11:50:28;7.65;;;6.68;;
36663;SDS011;53333;51.976;20.144;2022-10-16T11:53:09;7.97;;;6.88;;
36663;SDS011;53333;51.976;20.144;2022-10-16T11:55:49;7.60;;;6.90;;
36663;SDS011;53333;51.976;20.144;2022-10-16T11:58:26;8.55;;;7.25;;
36663;SDS011;53333;51.976;20.144;2022-10-16T12:01:13;10.75;;;7.43;;
36663;SDS011;53333;51.976;20.144;2022-10-16T12:03:55;7.35;;;6.40;;
36663;SDS011;53333;51.976;20.144;2022-10-16T12:06:37;8.70;;;6.50;;
36663;SDS011;53333;51.976;20.144;2022-10-16T12:12:24;8.23;;;6.90;;
36663;SDS011;53333;51.976;20.144;2022-10-16T12:15:17;7.72;;;6.50;;
36663;SDS011;53333;51.976;20.144;2022-10-16T12:18:20;14.52;;;11.95;;
36663;SDS011;53333;51.976;20.144;2022-10-16T12:20:55;7.78;;;5.80;;
36663;SDS011;53333;51.976;20.144;2022-10-16T12:23:33;8.60;;;5.97;;
36663;SDS011;53333;51.976;20.144;2022-10-16T12:26:10;7.22;;;5.68;;
36663;SDS011;53333;51.976;20.144;2022-10-16T12:28:44;6.55;;;5.60;;
36663;SDS011;53333;51.976;20.144;2022-10-16T12:31:21;7.00;;;6.15;;
36663;SDS011;53333;51.976;20.144;2022-10-16T12:33:57;10.00;;;6.30;;
36663;SDS011;53333;51.976;20.144;2022-10-16T12:36:34;9.07;;;6.32;;
36663;SDS011;53333;51.976;20.144;2022-10-16T12:39:16;5.75;;;5.18;;
36663;SDS011;53333;51.976;20.144;2022-10-16T12:42:01;7.45;;;5.22;;
36663;SDS011;53333;51.976;20.144;2022-10-16T12:44:36;5.90;;;5.10;;
36663;SDS011;53333;51.976;20.144;2022-10-16T12:47:20;7.75;;;5.60;;
36663;SDS011;53333;51.976;20.144;2022-10-16T12:49:55;10.07;;;5.50;;
36663;SDS011;53333;51.976;20.144;2022-10-16T12:52:34;8.95;;;5.32;;
36663;SDS011;53333;51.976;20.144;2022-10-16T12:55:21;8.07;;;5.43;;
36663;SDS011;53333;51.976;20.144;2022-10-16T12:58:02;6.57;;;5.28;;
36663;SDS011;53333;51.976;20.144;2022-10-16T13:00:54;7.63;;;5.28;;
36663;SDS011;53333;51.976;20.144;2022-10-16T13:06:34;11.70;;;6.50;;
36663;SDS011;53333;51.976;20.144;2022-10-16T13:12:29;15.60;;;7.78;;
36663;SDS011;53333;51.976;20.144;2022-10-16T13:15:30;9.20;;;6.55;;
36663;SDS011;53333;51.976;20.144;2022-10-16T13:18:14;9.70;;;6.22;;
36663;SDS011;53333;51.976;20.144;2022-10-16T13:20:59;8.57;;;6.30;;
36663;SDS011;53333;51.976;20.144;2022-10-16T13:23:42;8.88;;;6.72;;
36663;SDS011;53333;51.976;20.144;2022-10-16T13:26:28;9.07;;;6.35;;
36663;SDS011;53333;51.976;20.144;2022-10-16T13:29:11;10.93;;;6.53;;
36663;SDS011;53333;51.976;20.144;2022-10-16T13:31:47;7.40;;;6.15;;
36663;SDS011;53333;51.976;20.144;2022-10-16T13:34:21;9.80;;;7.03;;
36663;SDS011;53333;51.976;20.144;2022-10-16T13:36:57;10.50;;;7.22;;
36663;SDS011;53333;51.976;20.144;2022-10-16T13:39:30;16.65;;;11.48;;
36663;SDS011;53333;51.976;20.144;2022-10-16T13:42:05;21.00;;;12.90;;
36663;SDS011;53333;51.976;20.144;2022-10-16T13:44:50;11.15;;;7.13;;
36663;SDS011;53333;51.976;20.144;2022-10-16T13:47:26;13.23;;;7.57;;
36663;SDS011;53333;51.976;20.144;2022-10-16T13:50:03;10.35;;;6.43;;
36663;SDS011;53333;51.976;20.144;2022-10-16T13:52:39;9.55;;;6.80;;
36663;SDS011;53333;51.976;20.144;2022-10-16T13:55:13;9.02;;;6.93;;
36663;SDS011;53333;51.976;20.144;2022-10-16T13:57:48;9.10;;;6.22;;
36663;SDS011;53333;51.976;20.144;2022-10-16T14:00:23;9.45;;;7.65;;
36663;SDS011;53333;51.976;20.144;2022-10-16T14:03:03;9.90;;;7.35;;
36663;SDS011;53333;51.976;20.144;2022-10-16T14:05:40;9.23;;;6.63;;
36663;SDS011;53333;51.976;20.144;2022-10-16T14:08:21;12.95;;;6.88;;
36663;SDS011;53333;51.976;20.144;2022-10-16T14:10:55;10.77;;;6.93;;
36663;SDS011;53333;51.976;20.144;2022-10-16T14:13:31;13.85;;;7.40;;
36663;SDS011;53333;51.976;20.144;2022-10-16T14:16:15;76.28;;;46.97;;
36663;SDS011;53333;51.976;20.144;2022-10-16T14:18:55;11.48;;;7.32;;
36663;SDS011;53333;51.976;20.144;2022-10-16T14:21:30;14.80;;;7.22;;
36663;SDS011;53333;51.976;20.144;2022-10-16T14:24:19;10.43;;;7.65;;
36663;SDS011;53333;51.976;20.144;2022-10-16T14:26:58;12.00;;;7.43;;
36663;SDS011;53333;51.976;20.144;2022-10-16T14:29:33;9.50;;;6.97;;
36663;SDS011;53333;51.976;20.144;2022-10-16T14:32:22;12.32;;;7.20;;
36663;SDS011;53333;51.976;20.144;2022-10-16T14:35:02;10.77;;;7.13;;
36663;SDS011;53333;51.976;20.144;2022-10-16T14:37:36;15.63;;;11.27;;
36663;SDS011;53333;51.976;20.144;2022-10-16T14:40:13;22.80;;;16.90;;
36663;SDS011;53333;51.976;20.144;2022-10-16T14:42:50;12.95;;;7.72;;
36663;SDS011;53333;51.976;20.144;2022-10-16T14:45:25;11.23;;;8.00;;
36663;SDS011;53333;51.976;20.144;2022-10-16T14:48:02;9.75;;;7.03;;
36663;SDS011;53333;51.976;20.144;2022-10-16T14:50:38;8.98;;;6.95;;
36663;SDS011;53333;51.976;20.144;2022-10-16T14:53:12;11.48;;;6.88;;
36663;SDS011;53333;51.976;20.144;2022-10-16T14:55:47;11.73;;;7.43;;
36663;SDS011;53333;51.976;20.144;2022-10-16T14:58:22;11.52;;;7.93;;
36663;SDS011;53333;51.976;20.144;2022-10-16T15:00:56;13.68;;;7.20;;
36663;SDS011;53333;51.976;20.144;2022-10-16T15:03:30;12.80;;;7.40;;
36663;SDS011;53333;51.976;20.144;2022-10-16T15:06:04;13.25;;;8.52;;
36663;SDS011;53333;51.976;20.144;2022-10-16T15:08:43;14.63;;;8.10;;
36663;SDS011;53333;51.976;20.144;2022-10-16T15:11:18;10.15;;;7.28;;
36663;SDS011;53333;51.976;20.144;2022-10-16T15:13:52;13.98;;;9.10;;
36663;SDS011;53333;51.976;20.144;2022-10-16T15:16:26;13.38;;;8.25;;
36663;SDS011;53333;51.976;20.144;2022-10-16T15:19:00;11.55;;;8.15;;
36663;SDS011;53333;51.976;20.144;2022-10-16T15:21:33;11.88;;;8.60;;
36663;SDS011;53333;51.976;20.144;2022-10-16T15:24:08;14.02;;;8.63;;
36663;SDS011;53333;51.976;20.144;2022-10-16T15:26:51;14.05;;;9.18;;
36663;SDS011;53333;51.976;20.144;2022-10-16T15:29:25;14.10;;;8.48;;
36663;SDS011;53333;51.976;20.144;2022-10-16T15:31:58;28.17;;;17.88;;
36663;SDS011;53333;51.976;20.144;2022-10-16T15:34:32;22.40;;;13.93;;
36663;SDS011;53333;51.976;20.144;2022-10-16T15:37:06;17.77;;;10.07;;
36663;SDS011;53333;51.976;20.144;2022-10-16T15:39:43;16.63;;;10.77;;
36663;SDS011;53333;51.976;20.144;2022-10-16T15:42:19;16.73;;;11.07;;
36663;SDS011;53333;51.976;20.144;2022-10-16T15:44:52;15.30;;;10.05;;
36663;SDS011;53333;51.976;20.144;2022-10-16T15:47:26;19.55;;;13.10;;
36663;SDS011;53333;51.976;20.144;2022-10-16T15:50:05;16.52;;;12.02;;
36663;SDS011;53333;51.976;20.144;2022-10-16T15:52:40;18.58;;;13.73;;
36663;SDS011;53333;51.976;20.144;2022-10-16T15:55:13;21.05;;;14.18;;
36663;SDS011;53333;51.976;20.144;2022-10-16T15:57:48;20.38;;;13.82;;
36663;SDS011;53333;51.976;20.144;2022-10-16T16:00:23;20.15;;;13.95;;
36663;SDS011;53333;51.976;20.144;2022-10-16T16:02:57;20.27;;;14.05;;
36663;SDS011;53333;51.976;20.144;2022-10-16T16:05:31;19.83;;;13.65;;
36663;SDS011;53333;51.976;20.144;2022-10-16T16:08:05;16.95;;;12.75;;
36663;SDS011;53333;51.976;20.144;2022-10-16T16:10:38;21.33;;;13.57;;
36663;SDS011;53333;51.976;20.144;2022-10-16T16:13:14;21.02;;;14.25;;
36663;SDS011;53333;51.976;20.144;2022-10-16T16:15:48;21.25;;;14.80;;
36663;SDS011;53333;51.976;20.144;2022-10-16T16:18:21;20.50;;;13.32;;
36663;SDS011;53333;51.976;20.144;2022-10-16T16:20:55;67.03;;;42.38;;
36663;SDS011;53333;51.976;20.144;2022-10-16T16:23:29;32.55;;;19.73;;
36663;SDS011;53333;51.976;20.144;2022-10-16T16:26:04;19.70;;;13.25;;
36663;SDS011;53333;51.976;20.144;2022-10-16T16:28:41;19.38;;;12.98;;
36663;SDS011;53333;51.976;20.144;2022-10-16T16:31:19;27.75;;;13.40;;
36663;SDS011;53333;51.976;20.144;2022-10-16T16:33:57;24.80;;;14.52;;
36663;SDS011;53333;51.976;20.144;2022-10-16T16:36:31;30.33;;;16.95;;
36663;SDS011;53333;51.976;20.144;2022-10-16T16:39:05;30.65;;;19.08;;
36663;SDS011;53333;51.976;20.144;2022-10-16T16:41:39;32.72;;;19.70;;
36663;SDS011;53333;51.976;20.144;2022-10-16T16:44:15;32.05;;;20.27;;
36663;SDS011;53333;51.976;20.144;2022-10-16T16:46:49;33.00;;;19.05;;
36663;SDS011;53333;51.976;20.144;2022-10-16T16:49:23;28.85;;;18.58;;
36663;SDS011;53333;51.976;20.144;2022-10-16T16:51:57;31.95;;;21.83;;
36663;SDS011;53333;51.976;20.144;2022-10-16T16:54:30;28.27;;;19.40;;
36663;SDS011;53333;51.976;20.144;2022-10-16T16:57:09;29.55;;;19.60;;
36663;SDS011;53333;51.976;20.144;2022-10-16T16:59:44;26.65;;;17.65;;
36663;SDS011;53333;51.976;20.144;2022-10-16T17:02:18;24.85;;;18.75;;
36663;SDS011;53333;51.976;20.144;2022-10-16T17:04:51;27.20;;;18.25;;
36663;SDS011;53333;51.976;20.144;2022-10-16T17:07:25;28.58;;;18.00;;